sensor_id;sensor_type;location;lat;lon;timestamp;pressure;altitude;pressure_sealevel;temperature;humidity
26697;BME280;14312;52.614;13.496;2023-07-16T00:01:12;100073.84;;;26.63;48.78
26697;BME280;14312;52.614;13.496;2023-07-16T00:03:57;100083.50;;;26.57;48.97
26697;BME280;14312;52.614;13.496;2023-07-16T00:06:43;100083.75;;;26.52;49.10
26697;BME280;14312;52.614;13.496;2023-07-16T00:09:29;100076.56;;;26.44;49.10
26697;BME280;14312;52.614;13.496;2023-07-16T00:12:15;100088.94;;;26.38;49.34
26697;BME280;14312;52.614;13.496;2023-07-16T00:15:01;100085.34;;;26.34;49.67
26697;BME280;14312;52.614;13.496;2023-07-16T00:17:47;100080.88;;;26.26;49.69
26697;BME280;14312;52.614;13.496;2023-07-16T00:20:33;100083.94;;;26.24;49.46
26697;BME280;14312;52.614;13.496;2023-07-16T00:23:19;100071.38;;;26.20;49.70
26697;BME280;14312;52.614;13.496;2023-07-16T00:26:05;100064.97;;;26.12;49.90
26697;BME280;14312;52.614;13.496;2023-07-16T00:28:51;100072.38;;;26.11;50.33
26697;BME280;14312;52.614;13.496;2023-07-16T00:31:37;100074.25;;;26.07;50.72
26697;BME280;14312;52.614;13.496;2023-07-16T00:34:23;100077.31;;;26.06;50.54
26697;BME280;14312;52.614;13.496;2023-07-16T00:37:09;100088.16;;;26.02;50.70
26697;BME280;14312;52.614;13.496;2023-07-16T00:39:55;100086.16;;;25.99;50.76
26697;BME280;14312;52.614;13.496;2023-07-16T00:42:41;100095.03;;;25.96;51.31
26697;BME280;14312;52.614;13.496;2023-07-16T00:45:27;100097.34;;;25.94;50.95
26697;BME280;14312;52.614;13.496;2023-07-16T00:48:14;100115.25;;;25.92;51.25
26697;BME280;14312;52.614;13.496;2023-07-16T00:51:02;100125.38;;;25.91;51.19
26697;BME280;14312;52.614;13.496;2023-07-16T00:53:48;100128.00;;;25.88;51.49
26697;BME280;14312;52.614;13.496;2023-07-16T00:56:36;100139.28;;;25.86;51.20
26697;BME280;14312;52.614;13.496;2023-07-16T00:59:22;100150.19;;;25.86;51.94
26697;BME280;14312;52.614;13.496;2023-07-16T01:02:08;100177.44;;;25.83;52.54
26697;BME280;14312;52.614;13.496;2023-07-16T01:04:54;100186.41;;;25.83;52.16
26697;BME280;14312;52.614;13.496;2023-07-16T01:07:42;100202.78;;;25.83;52.74
26697;BME280;14312;52.614;13.496;2023-07-16T01:10:32;100199.97;;;25.80;52.96
26697;BME280;14312;52.614;13.496;2023-07-16T01:13:19;100220.25;;;25.79;52.57
26697;BME280;14312;52.614;13.496;2023-07-16T01:16:05;100248.31;;;25.79;52.73
26697;BME280;14312;52.614;13.496;2023-07-16T01:18:51;100270.16;;;25.79;52.22
26697;BME280;14312;52.614;13.496;2023-07-16T01:22:02;100301.53;;;25.85;52.90
26697;BME280;14312;52.614;13.496;2023-07-16T01:28:27;100350.88;;;25.92;53.17
26697;BME280;14312;52.614;13.496;2023-07-16T01:31:18;100354.81;;;25.95;55.29
26697;BME280;14312;52.614;13.496;2023-07-16T01:34:08;100355.81;;;26.02;54.75
26697;BME280;14312;52.614;13.496;2023-07-16T01:36:55;100368.06;;;26.08;54.96
26697;BME280;14312;52.614;13.496;2023-07-16T01:39:41;100369.41;;;26.15;54.95
26697;BME280;14312;52.614;13.496;2023-07-16T01:42:28;100386.75;;;26.22;55.49
26697;BME280;14312;52.614;13.496;2023-07-16T01:45:14;100388.56;;;26.30;55.23
26697;BME280;14312;52.614;13.496;2023-07-16T01:48:17;100382.59;;;26.40;54.59
26697;BME280;14312;52.614;13.496;2023-07-16T01:51:07;100384.19;;;26.41;54.73
26697;BME280;14312;52.614;13.496;2023-07-16T01:53:53;100379.94;;;26.44;54.93
26697;BME280;14312;52.614;13.496;2023-07-16T01:56:39;100381.97;;;26.47;54.84
26697;BME280;14312;52.614;13.496;2023-07-16T01:59:25;100369.44;;;26.46;54.48
26697;BME280;14312;52.614;13.496;2023-07-16T02:02:11;100374.13;;;26.45;54.28
26697;BME280;14312;52.614;13.496;2023-07-16T02:04:57;100380.38;;;26.46;54.43
26697;BME280;14312;52.614;13.496;2023-07-16T02:07:42;100371.84;;;26.47;54.40
26697;BME280;14312;52.614;13.496;2023-07-16T02:10:28;100390.16;;;26.47;54.07
26697;BME280;14312;52.614;13.496;2023-07-16T02:13:14;100371.72;;;26.44;54.15
26697;BME280;14312;52.614;13.496;2023-07-16T02:16:00;100388.13;;;26.44;54.47
26697;BME280;14312;52.614;13.496;2023-07-16T02:18:46;100383.38;;;26.41;54.00
26697;BME280;14312;52.614;13.496;2023-07-16T02:21:32;100377.91;;;26.41;53.94
26697;BME280;14312;52.614;13.496;2023-07-16T02:24:18;100378.38;;;26.43;53.96
26697;BME280;14312;52.614;13.496;2023-07-16T02:27:05;100370.16;;;26.43;54.04
26697;BME280;14312;52.614;13.496;2023-07-16T02:29:51;100367.00;;;26.41;53.96
26697;BME280;14312;52.614;13.496;2023-07-16T02:32:37;100370.00;;;26.36;54.07
26697;BME280;14312;52.614;13.496;2023-07-16T02:35:22;100389.34;;;26.31;54.50
26697;BME280;14312;52.614;13.496;2023-07-16T02:38:08;100396.72;;;26.15;54.16
26697;BME280;14312;52.614;13.496;2023-07-16T02:40:54;100389.38;;;26.03;54.56
26697;BME280;14312;52.614;13.496;2023-07-16T02:43:40;100405.72;;;25.87;54.82
26697;BME280;14312;52.614;13.496;2023-07-16T02:46:27;100401.00;;;25.72;55.39
26697;BME280;14312;52.614;13.496;2023-07-16T02:49:13;100372.84;;;25.56;55.67
26697;BME280;14312;52.614;13.496;2023-07-16T02:51:58;100349.28;;;25.35;55.55
26697;BME280;14312;52.614;13.496;2023-07-16T02:54:44;100369.16;;;25.24;55.63
26697;BME280;14312;52.614;13.496;2023-07-16T02:57:30;100376.13;;;25.09;56.03
26697;BME280;14312;52.614;13.496;2023-07-16T03:00:16;100399.56;;;24.98;56.45
26697;BME280;14312;52.614;13.496;2023-07-16T03:03:02;100397.25;;;24.88;57.07
26697;BME280;14312;52.614;13.496;2023-07-16T03:05:51;100402.06;;;24.79;57.04
26697;BME280;14312;52.614;13.496;2023-07-16T03:08:37;100418.03;;;24.68;57.39
26697;BME280;14312;52.614;13.496;2023-07-16T03:11:23;100418.59;;;24.62;57.70
26697;BME280;14312;52.614;13.496;2023-07-16T03:14:09;100419.97;;;24.55;58.72
26697;BME280;14312;52.614;13.496;2023-07-16T03:16:54;100403.38;;;24.48;58.79
26697;BME280;14312;52.614;13.496;2023-07-16T03:19:40;100395.44;;;24.43;59.41
26697;BME280;14312;52.614;13.496;2023-07-16T03:22:26;100372.72;;;24.39;59.93
26697;BME280;14312;52.614;13.496;2023-07-16T03:25:12;100357.72;;;24.33;59.62
26697;BME280;14312;52.614;13.496;2023-07-16T03:27:58;100358.75;;;24.29;59.64
26697;BME280;14312;52.614;13.496;2023-07-16T03:30:48;100369.50;;;24.25;60.64
26697;BME280;14312;52.614;13.496;2023-07-16T03:33:34;100367.47;;;24.22;60.37
26697;BME280;14312;52.614;13.496;2023-07-16T03:36:20;100339.28;;;24.18;60.27
26697;BME280;14312;52.614;13.496;2023-07-16T03:39:06;100316.59;;;24.14;60.07
26697;BME280;14312;52.614;13.496;2023-07-16T03:41:52;100350.72;;;24.11;60.11
26697;BME280;14312;52.614;13.496;2023-07-16T03:44:38;100376.84;;;24.12;60.30
26697;BME280;14312;52.614;13.496;2023-07-16T03:47:24;100363.78;;;24.06;60.18
26697;BME280;14312;52.614;13.496;2023-07-16T03:50:10;100359.69;;;24.12;61.44
26697;BME280;14312;52.614;13.496;2023-07-16T03:52:56;100338.94;;;24.07;62.39
26697;BME280;14312;52.614;13.496;2023-07-16T03:55:42;100364.44;;;24.03;62.46
26697;BME280;14312;52.614;13.496;2023-07-16T03:58:28;100365.91;;;24.00;62.32
26697;BME280;14312;52.614;13.496;2023-07-16T04:01:15;100378.72;;;24.00;61.95
26697;BME280;14312;52.614;13.496;2023-07-16T04:04:01;100374.28;;;23.95;62.08
26697;BME280;14312;52.614;13.496;2023-07-16T04:06:47;100368.03;;;23.95;62.45
26697;BME280;14312;52.614;13.496;2023-07-16T04:09:32;100373.47;;;23.95;62.52
26697;BME280;14312;52.614;13.496;2023-07-16T04:12:18;100383.59;;;23.94;62.40
26697;BME280;14312;52.614;13.496;2023-07-16T04:15:07;100387.56;;;23.97;62.49
26697;BME280;14312;52.614;13.496;2023-07-16T04:17:54;100387.56;;;23.97;62.95
26697;BME280;14312;52.614;13.496;2023-07-16T04:20:40;100385.63;;;23.97;62.83
26697;BME280;14312;52.614;13.496;2023-07-16T04:23:26;100392.22;;;23.96;62.61
26697;BME280;14312;52.614;13.496;2023-07-16T04:26:12;100369.63;;;23.96;62.79
26697;BME280;14312;52.614;13.496;2023-07-16T04:28:58;100357.50;;;23.93;62.41
26697;BME280;14312;52.614;13.496;2023-07-16T04:31:44;100372.81;;;23.98;62.41
26697;BME280;14312;52.614;13.496;2023-07-16T04:34:30;100398.69;;;24.04;63.48
26697;BME280;14312;52.614;13.496;2023-07-16T04:37:16;100386.22;;;24.03;63.61
26697;BME280;14312;52.614;13.496;2023-07-16T04:40:02;100407.81;;;24.08;63.89
26697;BME280;14312;52.614;13.496;2023-07-16T04:42:50;100404.28;;;24.07;63.57
26697;BME280;14312;52.614;13.496;2023-07-16T04:45:36;100397.25;;;24.06;63.51
26697;BME280;14312;52.614;13.496;2023-07-16T04:48:21;100405.75;;;24.05;63.24
26697;BME280;14312;52.614;13.496;2023-07-16T04:51:07;100408.13;;;24.06;63.22
26697;BME280;14312;52.614;13.496;2023-07-16T04:53:53;100419.81;;;24.07;63.62
26697;BME280;14312;52.614;13.496;2023-07-16T04:56:39;100430.72;;;24.07;63.68
26697;BME280;14312;52.614;13.496;2023-07-16T04:59:25;100441.59;;;24.07;63.74
26697;BME280;14312;52.614;13.496;2023-07-16T05:02:11;100456.34;;;24.06;63.79
26697;BME280;14312;52.614;13.496;2023-07-16T05:04:57;100454.75;;;24.05;63.61
26697;BME280;14312;52.614;13.496;2023-07-16T05:07:43;100456.34;;;24.06;63.65
26697;BME280;14312;52.614;13.496;2023-07-16T05:10:29;100459.53;;;24.08;63.14
26697;BME280;14312;52.614;13.496;2023-07-16T05:13:15;100479.03;;;24.10;63.28
26697;BME280;14312;52.614;13.496;2023-07-16T05:16:01;100497.44;;;24.13;63.24
26697;BME280;14312;52.614;13.496;2023-07-16T05:18:47;100491.31;;;24.16;63.38
26697;BME280;14312;52.614;13.496;2023-07-16T05:21:33;100488.78;;;24.19;63.48
26697;BME280;14312;52.614;13.496;2023-07-16T05:24:19;100499.34;;;24.21;63.10
26697;BME280;14312;52.614;13.496;2023-07-16T05:27:05;100482.13;;;24.29;64.16
26697;BME280;14312;52.614;13.496;2023-07-16T05:29:51;100466.47;;;24.38;64.58
26697;BME280;14312;52.614;13.496;2023-07-16T05:32:37;100481.03;;;24.42;64.00
26697;BME280;14312;52.614;13.496;2023-07-16T05:35:23;100490.56;;;24.48;64.26
26697;BME280;14312;52.614;13.496;2023-07-16T05:38:09;100483.78;;;24.54;64.10
26697;BME280;14312;52.614;13.496;2023-07-16T05:41:00;100476.31;;;24.64;64.18
26697;BME280;14312;52.614;13.496;2023-07-16T05:43:47;100471.09;;;24.71;63.83
26697;BME280;14312;52.614;13.496;2023-07-16T05:46:33;100495.53;;;24.79;63.84
26697;BME280;14312;52.614;13.496;2023-07-16T05:49:19;100495.41;;;24.88;63.11
26697;BME280;14312;52.614;13.496;2023-07-16T05:52:06;100500.69;;;24.93;63.13
26697;BME280;14312;52.614;13.496;2023-07-16T05:54:52;100492.28;;;24.98;62.82
26697;BME280;14312;52.614;13.496;2023-07-16T05:57:38;100488.97;;;25.05;62.53
26697;BME280;14312;52.614;13.496;2023-07-16T06:00:23;100484.00;;;25.07;62.42
26697;BME280;14312;52.614;13.496;2023-07-16T06:03:10;100484.78;;;25.07;62.52
26697;BME280;14312;52.614;13.496;2023-07-16T06:05:55;100495.81;;;25.11;62.55
26697;BME280;14312;52.614;13.496;2023-07-16T06:08:41;100486.81;;;25.10;62.63
26697;BME280;14312;52.614;13.496;2023-07-16T06:11:27;100499.78;;;25.13;63.08
26697;BME280;14312;52.614;13.496;2023-07-16T06:14:13;100506.13;;;25.17;62.79
26697;BME280;14312;52.614;13.496;2023-07-16T06:16:59;100500.00;;;25.20;62.74
26697;BME280;14312;52.614;13.496;2023-07-16T06:19:45;100504.78;;;25.23;63.08
26697;BME280;14312;52.614;13.496;2023-07-16T06:22:34;100501.47;;;25.30;62.91
26697;BME280;14312;52.614;13.496;2023-07-16T06:25:20;100507.50;;;25.35;62.45
26697;BME280;14312;52.614;13.496;2023-07-16T06:28:06;100501.81;;;25.41;62.35
26697;BME280;14312;52.614;13.496;2023-07-16T06:30:51;100508.63;;;25.47;62.52
26697;BME280;14312;52.614;13.496;2023-07-16T06:33:37;100515.78;;;25.51;62.18
26697;BME280;14312;52.614;13.496;2023-07-16T06:36:24;100515.22;;;25.58;62.74
26697;BME280;14312;52.614;13.496;2023-07-16T06:39:09;100501.38;;;25.63;62.54
26697;BME280;14312;52.614;13.496;2023-07-16T06:41:55;100515.56;;;25.68;62.22
26697;BME280;14312;52.614;13.496;2023-07-16T06:44:42;100522.03;;;25.76;62.08
26697;BME280;14312;52.614;13.496;2023-07-16T06:47:28;100518.38;;;25.84;62.31
26697;BME280;14312;52.614;13.496;2023-07-16T06:50:14;100509.94;;;25.89;62.22
26697;BME280;14312;52.614;13.496;2023-07-16T06:53:00;100519.59;;;25.99;62.10
26697;BME280;14312;52.614;13.496;2023-07-16T06:55:47;100521.03;;;26.08;62.14
26697;BME280;14312;52.614;13.496;2023-07-16T06:58:34;100520.09;;;26.17;61.65
26697;BME280;14312;52.614;13.496;2023-07-16T07:01:20;100527.13;;;26.30;60.98
26697;BME280;14312;52.614;13.496;2023-07-16T07:04:06;100533.69;;;26.41;60.78
26697;BME280;14312;52.614;13.496;2023-07-16T07:06:52;100534.34;;;26.50;60.90
26697;BME280;14312;52.614;13.496;2023-07-16T07:09:38;100532.22;;;26.59;60.33
26697;BME280;14312;52.614;13.496;2023-07-16T07:12:24;100537.66;;;26.71;59.89
26697;BME280;14312;52.614;13.496;2023-07-16T07:15:10;100532.78;;;26.80;59.83
26697;BME280;14312;52.614;13.496;2023-07-16T07:17:56;100533.69;;;26.84;59.31
26697;BME280;14312;52.614;13.496;2023-07-16T07:20:42;100543.25;;;26.91;59.40
26697;BME280;14312;52.614;13.496;2023-07-16T07:23:28;100540.97;;;26.93;58.93
26697;BME280;14312;52.614;13.496;2023-07-16T07:26:14;100557.13;;;26.98;58.42
26697;BME280;14312;52.614;13.496;2023-07-16T07:29:00;100547.31;;;26.97;58.35
26697;BME280;14312;52.614;13.496;2023-07-16T07:31:45;100545.03;;;26.99;58.57
26697;BME280;14312;52.614;13.496;2023-07-16T07:34:33;100547.31;;;26.97;58.26
26697;BME280;14312;52.614;13.496;2023-07-16T07:37:19;100558.44;;;27.04;58.12
26697;BME280;14312;52.614;13.496;2023-07-16T07:40:05;100557.75;;;27.07;57.98
26697;BME280;14312;52.614;13.496;2023-07-16T07:42:51;100561.81;;;27.13;58.18
26697;BME280;14312;52.614;13.496;2023-07-16T07:45:37;100551.81;;;27.20;58.21
26697;BME280;14312;52.614;13.496;2023-07-16T07:48:23;100573.97;;;27.31;57.95
26697;BME280;14312;52.614;13.496;2023-07-16T07:51:09;100562.50;;;27.41;57.06
26697;BME280;14312;52.614;13.496;2023-07-16T07:53:55;100564.94;;;27.46;56.74
26697;BME280;14312;52.614;13.496;2023-07-16T07:56:41;100554.88;;;27.50;56.58
26697;BME280;14312;52.614;13.496;2023-07-16T07:59:27;100569.03;;;27.52;56.63
26697;BME280;14312;52.614;13.496;2023-07-16T08:02:13;100569.03;;;27.52;56.36
26697;BME280;14312;52.614;13.496;2023-07-16T08:04:59;100576.16;;;27.57;56.22
26697;BME280;14312;52.614;13.496;2023-07-16T08:07:44;100580.16;;;27.59;55.78
26697;BME280;14312;52.614;13.496;2023-07-16T08:10:30;100587.28;;;27.64;55.12
26697;BME280;14312;52.614;13.496;2023-07-16T08:13:16;100575.56;;;27.63;55.15
26697;BME280;14312;52.614;13.496;2023-07-16T08:16:02;100578.03;;;27.69;55.03
26697;BME280;14312;52.614;13.496;2023-07-16T08:18:48;100576.94;;;27.73;54.37
26697;BME280;14312;52.614;13.496;2023-07-16T08:21:35;100583.66;;;27.76;53.90
26697;BME280;14312;52.614;13.496;2023-07-16T08:24:24;100588.41;;;27.79;53.51
26697;BME280;14312;52.614;13.496;2023-07-16T08:27:10;100598.72;;;27.85;53.30
26697;BME280;14312;52.614;13.496;2023-07-16T08:29:57;100582.38;;;27.89;53.14
26697;BME280;14312;52.614;13.496;2023-07-16T08:32:43;100591.91;;;27.95;53.13
26697;BME280;14312;52.614;13.496;2023-07-16T08:35:29;100596.75;;;28.01;52.77
26697;BME280;14312;52.614;13.496;2023-07-16T08:38:15;100596.13;;;28.08;52.50
26697;BME280;14312;52.614;13.496;2023-07-16T08:41:03;100591.94;;;28.14;51.74
26697;BME280;14312;52.614;13.496;2023-07-16T08:43:49;100599.28;;;28.26;51.35
26697;BME280;14312;52.614;13.496;2023-07-16T08:46:36;100584.19;;;28.35;51.03
26697;BME280;14312;52.614;13.496;2023-07-16T08:49:22;100598.47;;;28.44;50.50
26697;BME280;14312;52.614;13.496;2023-07-16T08:52:09;100592.44;;;28.55;50.87
26697;BME280;14312;52.614;13.496;2023-07-16T08:54:56;100598.97;;;28.69;50.50
26697;BME280;14312;52.614;13.496;2023-07-16T08:57:42;100616.53;;;28.84;49.63
26697;BME280;14312;52.614;13.496;2023-07-16T09:00:29;100605.63;;;28.88;49.04
26697;BME280;14312;52.614;13.496;2023-07-16T09:03:15;100616.59;;;28.88;48.42
26697;BME280;14312;52.614;13.496;2023-07-16T09:06:05;100613.50;;;28.89;48.94
26697;BME280;14312;52.614;13.496;2023-07-16T09:08:53;100612.47;;;28.97;48.81
26697;BME280;14312;52.614;13.496;2023-07-16T09:11:46;100611.44;;;29.05;48.24
26697;BME280;14312;52.614;13.496;2023-07-16T09:14:32;100620.94;;;29.11;48.67
26697;BME280;14312;52.614;13.496;2023-07-16T09:17:25;100620.31;;;29.21;46.90
26697;BME280;14312;52.614;13.496;2023-07-16T09:20:11;100612.22;;;29.29;47.59
26697;BME280;14312;52.614;13.496;2023-07-16T09:22:57;100619.13;;;29.42;47.56
26697;BME280;14312;52.614;13.496;2023-07-16T09:25:43;100624.44;;;29.54;47.55
26697;BME280;14312;52.614;13.496;2023-07-16T09:28:30;100627.47;;;29.72;47.05
26697;BME280;14312;52.614;13.496;2023-07-16T09:31:17;100624.13;;;29.85;46.43
26697;BME280;14312;52.614;13.496;2023-07-16T09:34:03;100642.06;;;30.02;46.52
26697;BME280;14312;52.614;13.496;2023-07-16T09:36:51;100624.19;;;30.15;45.80
26697;BME280;14312;52.614;13.496;2023-07-16T09:39:38;100623.50;;;30.22;45.80
26697;BME280;14312;52.614;13.496;2023-07-16T09:42:27;100629.19;;;30.36;45.67
26697;BME280;14312;52.614;13.496;2023-07-16T09:45:18;100620.66;;;30.48;45.33
26697;BME280;14312;52.614;13.496;2023-07-16T09:48:04;100619.25;;;30.58;44.48
26697;BME280;14312;52.614;13.496;2023-07-16T09:50:52;100620.56;;;30.67;43.03
26697;BME280;14312;52.614;13.496;2023-07-16T09:53:41;100619.06;;;30.77;43.20
26697;BME280;14312;52.614;13.496;2023-07-16T09:56:36;100627.47;;;30.88;41.89
26697;BME280;14312;52.614;13.496;2023-07-16T09:59:25;100621.59;;;30.93;42.57
26697;BME280;14312;52.614;13.496;2023-07-16T10:02:13;100622.84;;;30.99;42.93
26697;BME280;14312;52.614;13.496;2023-07-16T10:04:59;100624.53;;;31.07;42.56
26697;BME280;14312;52.614;13.496;2023-07-16T10:07:56;100617.13;;;31.15;42.22
26697;BME280;14312;52.614;13.496;2023-07-16T10:10:52;100626.63;;;31.21;42.12
26697;BME280;14312;52.614;13.496;2023-07-16T10:13:39;100643.59;;;31.26;41.60
26697;BME280;14312;52.614;13.496;2023-07-16T10:16:35;100629.84;;;31.26;40.75
26697;BME280;14312;52.614;13.496;2023-07-16T10:19:23;100642.41;;;31.27;41.59
26697;BME280;14312;52.614;13.496;2023-07-16T10:22:09;100636.94;;;31.31;41.15
26697;BME280;14312;52.614;13.496;2023-07-16T10:24:55;100633.41;;;31.30;41.53
26697;BME280;14312;52.614;13.496;2023-07-16T10:27:41;100637.31;;;31.29;40.16
26697;BME280;14312;52.614;13.496;2023-07-16T10:30:27;100637.63;;;31.21;40.17
26697;BME280;14312;52.614;13.496;2023-07-16T10:33:13;100642.69;;;31.15;40.33
26697;BME280;14312;52.614;13.496;2023-07-16T10:35:59;100638.00;;;31.16;40.31
26697;BME280;14312;52.614;13.496;2023-07-16T10:38:45;100616.75;;;31.16;40.27
26697;BME280;14312;52.614;13.496;2023-07-16T10:41:31;100629.41;;;31.24;39.52
26697;BME280;14312;52.614;13.496;2023-07-16T10:44:23;100645.97;;;31.28;39.35
26697;BME280;14312;52.614;13.496;2023-07-16T10:47:18;100640.50;;;31.31;39.81
26697;BME280;14312;52.614;13.496;2023-07-16T10:50:07;100629.91;;;31.33;39.68
26697;BME280;14312;52.614;13.496;2023-07-16T10:52:55;100653.16;;;31.39;39.55
26697;BME280;14312;52.614;13.496;2023-07-16T10:55:42;100628.81;;;31.48;39.50
26697;BME280;14312;52.614;13.496;2023-07-16T10:58:27;100626.53;;;31.58;38.80
26697;BME280;14312;52.614;13.496;2023-07-16T11:01:14;100635.25;;;31.63;38.27
26697;BME280;14312;52.614;13.496;2023-07-16T11:04:00;100628.22;;;31.66;38.16
26697;BME280;14312;52.614;13.496;2023-07-16T11:06:50;100638.47;;;31.69;38.03
26697;BME280;14312;52.614;13.496;2023-07-16T11:09:49;100644.00;;;31.69;37.85
26697;BME280;14312;52.614;13.496;2023-07-16T11:12:36;100647.06;;;31.60;38.30
26697;BME280;14312;52.614;13.496;2023-07-16T11:15:35;100640.69;;;31.52;37.45
26697;BME280;14312;52.614;13.496;2023-07-16T11:18:24;100642.16;;;31.43;37.87
26697;BME280;14312;52.614;13.496;2023-07-16T11:21:10;100639.78;;;31.41;37.87
26697;BME280;14312;52.614;13.496;2023-07-16T11:23:56;100639.81;;;31.45;38.51
26697;BME280;14312;52.614;13.496;2023-07-16T11:26:54;100641.44;;;31.49;38.26
26697;BME280;14312;52.614;13.496;2023-07-16T11:29:51;100652.44;;;31.49;37.96
26697;BME280;14312;52.614;13.496;2023-07-16T11:32:43;100633.53;;;31.44;37.04
26697;BME280;14312;52.614;13.496;2023-07-16T11:35:31;100643.72;;;31.40;37.46
26697;BME280;14312;52.614;13.496;2023-07-16T11:38:17;100644.47;;;31.37;37.01
26697;BME280;14312;52.614;13.496;2023-07-16T11:41:04;100638.91;;;31.30;36.13
26697;BME280;14312;52.614;13.496;2023-07-16T11:43:50;100634.88;;;31.17;36.46
26697;BME280;14312;52.614;13.496;2023-07-16T11:46:36;100640.59;;;31.05;36.76
26697;BME280;14312;52.614;13.496;2023-07-16T11:49:22;100639.34;;;30.95;36.62
26697;BME280;14312;52.614;13.496;2023-07-16T11:52:08;100630.56;;;30.86;36.76
26697;BME280;14312;52.614;13.496;2023-07-16T11:54:57;100643.19;;;30.87;37.01
26697;BME280;14312;52.614;13.496;2023-07-16T11:57:50;100636.06;;;30.83;37.04
26697;BME280;14312;52.614;13.496;2023-07-16T12:00:36;100643.91;;;30.81;37.07
26697;BME280;14312;52.614;13.496;2023-07-16T12:03:22;100631.22;;;30.72;37.81
26697;BME280;14312;52.614;13.496;2023-07-16T12:06:09;100642.97;;;30.69;37.27
26697;BME280;14312;52.614;13.496;2023-07-16T12:08:58;100656.72;;;30.69;37.46
26697;BME280;14312;52.614;13.496;2023-07-16T12:11:44;100638.22;;;30.66;37.82
26697;BME280;14312;52.614;13.496;2023-07-16T12:14:30;100653.22;;;30.69;37.16
26697;BME280;14312;52.614;13.496;2023-07-16T12:17:16;100657.50;;;30.66;37.56
26697;BME280;14312;52.614;13.496;2023-07-16T12:20:03;100653.06;;;30.58;37.54
26697;BME280;14312;52.614;13.496;2023-07-16T12:22:49;100649.09;;;30.56;37.13
26697;BME280;14312;52.614;13.496;2023-07-16T12:25:35;100637.38;;;30.62;37.00
26697;BME280;14312;52.614;13.496;2023-07-16T12:28:21;100648.56;;;30.77;37.22
26697;BME280;14312;52.614;13.496;2023-07-16T12:31:07;100642.09;;;30.99;35.67
26697;BME280;14312;52.614;13.496;2023-07-16T12:33:53;100643.53;;;31.19;34.69
26697;BME280;14312;52.614;13.496;2023-07-16T12:36:39;100664.19;;;31.39;34.43
26697;BME280;14312;52.614;13.496;2023-07-16T12:39:25;100665.09;;;31.54;33.76
26697;BME280;14312;52.614;13.496;2023-07-16T12:42:13;100642.41;;;31.71;32.99
26697;BME280;14312;52.614;13.496;2023-07-16T12:44:59;100652.38;;;31.86;31.74
26697;BME280;14312;52.614;13.496;2023-07-16T12:47:45;100663.88;;;31.99;31.39
26697;BME280;14312;52.614;13.496;2023-07-16T12:50:30;100651.34;;;32.09;31.77
26697;BME280;14312;52.614;13.496;2023-07-16T12:53:17;100652.19;;;32.16;31.49
26697;BME280;14312;52.614;13.496;2023-07-16T12:56:03;100664.06;;;32.27;31.43
26697;BME280;14312;52.614;13.496;2023-07-16T12:58:52;100638.88;;;32.36;30.81
26697;BME280;14312;52.614;13.496;2023-07-16T13:01:38;100646.03;;;32.48;29.45
26697;BME280;14312;52.614;13.496;2023-07-16T13:04:24;100642.91;;;32.53;30.35
26697;BME280;14312;52.614;13.496;2023-07-16T13:07:09;100639.00;;;32.64;28.40
26697;BME280;14312;52.614;13.496;2023-07-16T13:09:55;100643.72;;;32.64;29.01
26697;BME280;14312;52.614;13.496;2023-07-16T13:12:41;100638.63;;;32.66;29.11
26697;BME280;14312;52.614;13.496;2023-07-16T13:15:27;100646.13;;;32.69;29.69
26697;BME280;14312;52.614;13.496;2023-07-16T13:18:13;100658.78;;;32.77;29.77
26697;BME280;14312;52.614;13.496;2023-07-16T13:20:59;100661.19;;;32.89;29.51
26697;BME280;14312;52.614;13.496;2023-07-16T13:23:44;100662.00;;;33.00;28.99
26697;BME280;14312;52.614;13.496;2023-07-16T13:26:30;100650.19;;;33.11;29.47
26697;BME280;14312;52.614;13.496;2023-07-16T13:29:16;100649.41;;;33.17;28.60
26697;BME280;14312;52.614;13.496;2023-07-16T13:32:02;100663.19;;;33.14;28.33
26697;BME280;14312;52.614;13.496;2023-07-16T13:34:49;100667.94;;;33.02;28.12
26697;BME280;14312;52.614;13.496;2023-07-16T13:37:34;100663.56;;;32.87;28.28
26697;BME280;14312;52.614;13.496;2023-07-16T13:40:20;100662.72;;;32.73;28.79
26697;BME280;14312;52.614;13.496;2023-07-16T13:43:06;100665.81;;;32.64;28.55
26697;BME280;14312;52.614;13.496;2023-07-16T13:45:52;100672.88;;;32.58;28.90
26697;BME280;14312;52.614;13.496;2023-07-16T13:48:38;100676.06;;;32.60;28.78
26697;BME280;14312;52.614;13.496;2023-07-16T13:51:26;100663.03;;;32.64;28.85
26697;BME280;14312;52.614;13.496;2023-07-16T13:54:12;100664.69;;;32.72;28.93
26697;BME280;14312;52.614;13.496;2023-07-16T13:56:58;100680.09;;;32.80;28.48
26697;BME280;14312;52.614;13.496;2023-07-16T13:59:43;100684.06;;;32.90;28.76
26697;BME280;14312;52.614;13.496;2023-07-16T14:02:29;100677.78;;;32.96;28.34
26697;BME280;14312;52.614;13.496;2023-07-16T14:05:15;100680.13;;;32.94;28.54
26697;BME280;14312;52.614;13.496;2023-07-16T14:08:01;100673.81;;;32.87;28.44
26697;BME280;14312;52.614;13.496;2023-07-16T14:10:47;100689.56;;;32.79;28.49
26697;BME280;14312;52.614;13.496;2023-07-16T14:13:34;100686.34;;;32.66;28.27
26697;BME280;14312;52.614;13.496;2023-07-16T14:16:20;100677.63;;;32.54;27.75
26697;BME280;14312;52.614;13.496;2023-07-16T14:19:06;100672.03;;;32.40;28.87
26697;BME280;14312;52.614;13.496;2023-07-16T14:21:52;100682.25;;;32.36;28.55
26697;BME280;14312;52.614;13.496;2023-07-16T14:24:38;100691.31;;;32.36;28.18